createdAt,value
2019-04-20T00:00:48.804Z,10.70
2019-04-20T00:01:44.915Z,10.78
2019-04-20T00:02:50.129Z,10.70
2019-04-20T00:03:45.669Z,10.73
2019-04-20T00:04:45.207Z,10.68
2019-04-20T00:05:45.485Z,10.73
2019-04-20T00:06:48.545Z,10.70
2019-04-20T00:07:44.515Z,10.71
2019-04-20T00:08:45.951Z,10.73
2019-04-20T00:09:50.237Z,10.67
2019-04-20T00:10:52.973Z,10.68
2019-04-20T00:11:53.262Z,10.66
2019-04-20T00:13:00.986Z,10.56
2019-04-20T00:13:52.962Z,10.71
2019-04-20T00:14:44.413Z,10.59
2019-04-20T00:15:45.058Z,10.63
2019-04-20T00:16:44.390Z,10.60
2019-04-20T00:17:49.452Z,10.56
2019-04-20T00:18:48.838Z,10.59
2019-04-20T00:19:49.078Z,10.59
2019-04-20T00:20:45.724Z,10.61
2019-04-20T00:21:49.555Z,10.52
2019-04-20T00:22:47.757Z,10.53
2019-04-20T00:23:47.714Z,10.55
2019-04-20T00:24:45.374Z,10.55
2019-04-20T00:25:54.842Z,10.67
2019-04-20T00:27:11.777Z,10.59
2019-04-20T00:28:04.747Z,10.63
2019-04-20T00:29:02.958Z,10.60
2019-04-20T00:30:00.130Z,10.64
2019-04-20T00:31:01.215Z,10.70
2019-04-20T00:31:58.408Z,10.68
2019-04-20T00:32:55.867Z,10.59
2019-04-20T00:33:55.871Z,10.56
2019-04-20T00:34:46.822Z,10.61
2019-04-20T00:35:44.354Z,10.63
2019-04-20T00:36:45.240Z,10.64
2019-04-20T00:37:44.550Z,10.52
2019-04-20T00:38:50.955Z,10.67
2019-04-20T00:39:44.767Z,10.61
2019-04-20T00:40:45.398Z,10.59
2019-04-20T00:41:52.130Z,10.61
2019-04-20T00:42:50.140Z,10.59
2019-04-20T00:43:45.502Z,10.51
2019-04-20T00:44:45.990Z,10.53
2019-04-20T00:45:51.747Z,10.60
2019-04-20T00:46:55.620Z,10.53
2019-04-20T00:47:51.198Z,10.59
2019-04-20T00:48:50.834Z,10.59
2019-04-20T00:49:57.809Z,10.52
2019-04-20T00:50:59.299Z,10.52
2019-04-20T00:52:13.172Z,10.59
2019-04-20T00:52:54.263Z,10.51
2019-04-20T00:53:48.057Z,10.44
2019-04-20T00:54:45.253Z,10.48
2019-04-20T00:55:44.445Z,10.41
2019-04-20T00:56:43.842Z,10.48
2019-04-20T00:57:51.420Z,10.47
2019-04-20T00:58:55.787Z,10.41
2019-04-20T01:00:04.997Z,10.45
2019-04-20T01:01:07.323Z,10.42
2019-04-20T01:02:04.042Z,10.34
2019-04-20T01:02:55.340Z,10.18
2019-04-20T01:04:06.799Z,10.17
2019-04-20T01:05:04.066Z,10.25
2019-04-20T01:06:09.742Z,10.15
2019-04-20T01:06:57.578Z,10.11
2019-04-20T01:07:50.481Z,10.12
2019-04-20T01:08:44.268Z,10.12
2019-04-20T01:09:43.658Z,10.11
2019-04-20T01:10:47.261Z,10.20
2019-04-20T01:11:47.764Z,10.17
2019-04-20T01:12:44.455Z,10.12
2019-04-20T01:13:49.395Z,10.23
2019-04-20T01:14:51.408Z,10.18
2019-04-20T01:15:51.541Z,10.12
2019-04-20T01:16:51.294Z,10.12
2019-04-20T01:17:43.551Z,10.07
2019-04-20T01:18:43.801Z,10.20
2019-04-20T01:19:43.536Z,10.14
2019-04-20T01:20:43.511Z,10.08
2019-04-20T01:21:49.843Z,10.17
2019-04-20T01:22:52.154Z,10.17
2019-04-20T01:23:50.704Z,10.20
2019-04-20T01:24:46.680Z,10.20
2019-04-20T01:25:45.861Z,10.12
2019-04-20T01:26:48.991Z,10.26
2019-04-20T01:28:06.594Z,10.22
2019-04-20T01:28:54.225Z,10.22
2019-04-20T01:29:49.581Z,10.25
2019-04-20T01:30:58.732Z,10.20
2019-04-20T01:31:55.939Z,10.22
2019-04-20T01:33:08.931Z,10.18
2019-04-20T01:33:56.530Z,10.18
2019-04-20T01:34:55.297Z,10.32
2019-04-20T01:35:56.680Z,10.32
2019-04-20T01:37:00.571Z,10.29
2019-04-20T01:38:02.659Z,10.23
2019-04-20T01:38:57.737Z,10.22
2019-04-20T01:39:50.200Z,10.20
2019-04-20T01:40:44.397Z,10.20
2019-04-20T01:41:43.468Z,10.25
2019-04-20T01:42:44.455Z,10.11
2019-04-20T01:43:43.640Z,10.17
2019-04-20T01:44:47.294Z,10.22
2019-04-20T01:45:44.432Z,10.12
2019-04-20T01:46:46.609Z,10.18
2019-04-20T01:47:47.831Z,9.99
2019-04-20T01:48:44.609Z,10.02
2019-04-20T01:49:46.698Z,9.96
2019-04-20T01:50:51.456Z,9.96
2019-04-20T01:51:53.804Z,9.96
2019-04-20T01:52:56.484Z,9.97
2019-04-20T01:54:02.624Z,10.01
2019-04-20T01:55:04.808Z,10.01
2019-04-20T01:55:55.791Z,9.94
2019-04-20T01:56:55.961Z,10.02
2019-04-20T01:58:00.181Z,10.07
2019-04-20T01:59:02.329Z,10.08
2019-04-20T01:59:54.373Z,10.02
2019-04-20T02:00:44.972Z,10.07
2019-04-20T02:01:45.522Z,10.01
2019-04-20T02:02:48.820Z,10.08
2019-04-20T02:03:46.479Z,9.99
2019-04-20T02:04:45.992Z,9.97
2019-04-20T02:05:51.305Z,10.01
2019-04-20T02:06:48.770Z,9.99
2019-04-20T02:07:47.526Z,10.05
2019-04-20T02:08:44.048Z,10.04
2019-04-20T02:09:49.971Z,9.96
2019-04-20T02:10:49.044Z,10.09
2019-04-20T02:11:46.787Z,10.07
2019-04-20T02:12:47.379Z,10.02
2019-04-20T02:13:48.095Z,10.09
2019-04-20T02:14:49.635Z,9.99
2019-04-20T02:15:48.551Z,10.07
2019-04-20T02:16:48.008Z,9.99
2019-04-20T02:17:46.964Z,9.97
2019-04-20T02:19:01.816Z,10.05
2019-04-20T02:20:06.566Z,9.99
2019-04-20T02:21:00.240Z,9.99
2019-04-20T02:21:58.874Z,10.04
2019-04-20T02:23:01.622Z,10.01
2019-04-20T02:23:49.966Z,9.91
2019-04-20T02:24:42.716Z,9.89
2019-04-20T02:25:43.915Z,9.90
2019-04-20T02:26:43.051Z,9.93
2019-04-20T02:27:48.852Z,9.94
2019-04-20T02:29:09.534Z,9.91
2019-04-20T02:30:07.553Z,9.90
2019-04-20T02:34:17.872Z,9.90
2019-04-20T02:35:16.745Z,9.94
2019-04-20T02:36:24.762Z,9.89
2019-04-20T02:38:26.713Z,9.89
2019-04-20T02:39:31.009Z,9.91
2019-04-20T02:40:16.121Z,9.96
2019-04-20T02:41:35.736Z,9.96
2019-04-20T02:42:19.792Z,9.89
2019-04-20T02:43:15.652Z,9.96
2019-04-20T02:46:12.862Z,9.87
2019-04-20T02:46:14.809Z,9.94
2019-04-20T02:47:27.668Z,9.94
2019-04-20T02:49:29.235Z,9.87
2019-04-20T02:50:15.269Z,9.90
2019-04-20T02:51:13.378Z,9.99
2019-04-20T02:52:12.394Z,10.04
2019-04-20T02:53:25.020Z,10.01
2019-04-20T02:54:26.629Z,9.99
2019-04-20T02:55:14.739Z,10.08
2019-04-20T02:56:29.622Z,10.07
2019-04-20T02:57:18.079Z,10.01
2019-04-20T02:59:43.294Z,9.99
2019-04-20T03:01:08.736Z,9.91
2019-04-20T03:01:59.089Z,9.83
2019-04-20T03:02:53.338Z,9.76
2019-04-20T03:03:49.182Z,9.76
2019-04-20T03:04:47.826Z,9.76
2019-04-20T03:05:58.246Z,9.68
2019-04-20T03:06:59.350Z,9.75
2019-04-20T03:08:05.706Z,9.75
2019-04-20T03:09:04.908Z,9.72
2019-04-20T03:10:01.175Z,9.72
2019-04-20T03:11:11.703Z,9.79
2019-04-20T03:12:23.947Z,9.79
2019-04-20T03:13:03.022Z,9.79
2019-04-20T03:14:05.214Z,9.83
2019-04-20T03:14:57.443Z,9.74
2019-04-20T03:16:08.769Z,9.83
2019-04-20T03:17:08.117Z,9.75
2019-04-20T03:18:03.585Z,9.76
2019-04-20T03:18:58.456Z,9.79
2019-04-20T03:19:56.947Z,9.81
2019-04-20T03:21:09.762Z,9.79
2019-04-20T03:22:05.093Z,9.79
2019-04-20T03:24:08.394Z,9.83
2019-04-20T03:25:06.286Z,9.78
2019-04-20T03:26:05.494Z,9.86
2019-04-20T03:26:59.595Z,9.78
2019-04-20T03:28:07.028Z,9.86
2019-04-20T03:28:58.890Z,9.83
2019-04-20T03:30:03.721Z,9.81
2019-04-20T03:32:35.581Z,9.81
2019-04-20T03:34:23.549Z,9.83
2019-04-20T03:36:11.884Z,9.79
2019-04-20T03:37:07.108Z,9.86
2019-04-20T03:38:06.013Z,9.81
2019-04-20T03:39:05.476Z,9.86
2019-04-20T03:39:59.236Z,9.75
2019-04-20T03:40:56.478Z,9.84
2019-04-20T03:41:46.995Z,9.74
2019-04-20T03:42:42.931Z,9.74
2019-04-20T03:43:41.751Z,9.78
2019-04-20T03:44:50.466Z,9.68
2019-04-20T03:45:48.400Z,9.66
2019-04-20T03:46:47.868Z,9.64
2019-04-20T03:47:54.376Z,9.75
2019-04-20T03:48:59.906Z,9.65
2019-04-20T03:50:06.209Z,9.78
2019-04-20T03:51:04.634Z,9.78
2019-04-20T03:52:02.683Z,9.83
2019-04-20T03:53:06.727Z,9.84
2019-04-20T03:53:58.865Z,9.71
2019-04-20T03:54:53.542Z,9.76
2019-04-20T03:56:01.111Z,9.83
2019-04-20T03:57:10.946Z,9.74
2019-04-20T03:58:03.339Z,9.76
2019-04-20T03:58:55.451Z,9.78
2019-04-20T04:00:03.641Z,9.84
2019-04-20T04:00:58.306Z,9.87
2019-04-20T04:02:22.535Z,9.87
2019-04-20T04:03:12.522Z,9.83
2019-04-20T04:04:05.367Z,9.83
2019-04-20T04:04:59.329Z,9.76
2019-04-20T04:05:55.544Z,9.81
2019-04-20T04:06:47.064Z,9.79
2019-04-20T04:07:46.797Z,9.79
2019-04-20T04:08:55.863Z,9.81
2019-04-20T04:10:00.794Z,9.72
2019-04-20T04:11:04.806Z,9.69
2019-04-20T04:11:54.842Z,9.69
2019-04-20T04:12:44.801Z,9.61
2019-04-20T04:13:41.955Z,9.66
2019-04-20T04:14:41.060Z,9.61
2019-04-20T04:15:45.120Z,9.61
2019-04-20T04:16:47.776Z,9.66
2019-04-20T04:17:44.729Z,9.68
2019-04-20T04:18:44.649Z,9.64
2019-04-20T04:19:52.396Z,9.66
2019-04-20T04:20:49.236Z,9.65
2019-04-20T04:22:00.815Z,9.65
2019-04-20T04:23:00.426Z,9.64
2019-04-20T04:23:58.918Z,9.61
2019-04-20T04:24:57.335Z,9.65
2019-04-20T04:26:02.191Z,9.61
2019-04-20T04:26:54.822Z,9.58
2019-04-20T04:28:01.392Z,9.71
2019-04-20T04:29:00.754Z,9.60
2019-04-20T04:29:56.952Z,9.56
2019-04-20T04:31:04.148Z,9.60
2019-04-20T04:32:10.535Z,9.53
2019-04-20T04:33:20.691Z,9.54
2019-04-20T04:33:59.321Z,9.58
2019-04-20T04:35:00.607Z,9.61
2019-04-20T04:35:56.477Z,9.66
2019-04-20T04:37:07.666Z,9.61
2019-04-20T04:38:02.752Z,9.61
2019-04-20T04:39:11.425Z,9.54
2019-04-20T04:40:13.403Z,9.54
2019-04-20T04:41:09.674Z,9.56
2019-04-20T04:42:10.329Z,9.61
2019-04-20T04:43:03.364Z,9.66
2019-04-20T04:44:00.678Z,9.57
2019-04-20T04:44:50.477Z,9.64
2019-04-20T04:45:40.647Z,9.53
2019-04-20T04:46:46.933Z,9.58
2019-04-20T04:47:40.905Z,9.56
2019-04-20T04:48:44.238Z,9.58
2019-04-20T04:49:44.331Z,9.56
2019-04-20T04:50:49.610Z,9.56
2019-04-20T04:51:51.480Z,9.51
2019-04-20T04:52:52.486Z,9.51
2019-04-20T04:53:51.116Z,9.48
2019-04-20T04:54:52.750Z,9.50
2019-04-20T04:55:47.688Z,9.51
2019-04-20T04:56:40.457Z,9.43
2019-04-20T04:57:41.240Z,9.39
2019-04-20T04:58:40.608Z,9.46
2019-04-20T04:59:40.424Z,9.40
2019-04-20T05:00:40.827Z,9.42
2019-04-20T05:01:40.916Z,9.39
2019-04-20T05:02:46.440Z,9.31
2019-04-20T05:04:05.617Z,9.40
2019-04-20T05:05:05.593Z,9.28
2019-04-20T05:06:00.493Z,9.36
2019-04-20T05:06:53.680Z,9.40
2019-04-20T05:07:52.028Z,9.35
2019-04-20T05:08:46.361Z,9.39
2019-04-20T05:09:41.491Z,9.32
2019-04-20T05:10:41.540Z,9.48
2019-04-20T05:11:40.646Z,9.39
2019-04-20T05:12:41.018Z,9.36
2019-04-20T05:13:49.057Z,9.43
2019-04-20T05:14:52.101Z,9.40
2019-04-20T05:15:52.531Z,9.42
2019-04-20T05:16:55.296Z,9.42
2019-04-20T05:18:01.738Z,9.40
2019-04-20T05:19:05.146Z,9.53
2019-04-20T05:19:57.819Z,9.53
2019-04-20T05:21:01.645Z,9.54
2019-04-20T05:22:05.376Z,9.48
2019-04-20T05:22:58.453Z,9.54
2019-04-20T05:23:53.347Z,9.61
2019-04-20T05:25:02.346Z,9.65
2019-04-20T05:26:01.770Z,9.60
2019-04-20T05:27:01.899Z,9.76
2019-04-20T05:28:03.021Z,9.72
2019-04-20T05:28:48.315Z,9.79
2019-04-20T05:29:41.394Z,9.87
2019-04-20T05:30:45.605Z,9.81
2019-04-20T05:31:48.648Z,9.76
2019-04-20T05:32:50.376Z,9.81
2019-04-20T05:34:03.613Z,9.78
2019-04-20T05:35:05.002Z,9.84
2019-04-20T05:36:01.606Z,9.79
2019-04-20T05:36:57.340Z,9.72
2019-04-20T05:38:07.115Z,9.74
2019-04-20T05:39:02.714Z,9.60
2019-04-20T05:40:04.973Z,9.66
2019-04-20T05:41:01.645Z,9.71
2019-04-20T05:41:58.065Z,9.64
2019-04-20T05:43:01.857Z,9.61
2019-04-20T05:43:56.637Z,9.61
2019-04-20T05:44:57.137Z,9.57
2019-04-20T05:45:52.612Z,9.60
2019-04-20T05:47:02.842Z,9.61
2019-04-20T05:47:52.645Z,9.64
2019-04-20T05:49:03.198Z,9.64
2019-04-20T05:49:56.064Z,9.64
2019-04-20T05:50:57.674Z,9.61
2019-04-20T05:52:13.264Z,9.66
2019-04-20T05:53:04.444Z,9.58
2019-04-20T05:54:02.356Z,9.61
2019-04-20T05:55:05.202Z,9.61
2019-04-20T05:55:55.941Z,9.74
2019-04-20T05:57:07.714Z,9.65
2019-04-20T05:58:03.568Z,9.60
2019-04-20T05:58:59.583Z,9.69
2019-04-20T06:00:09.617Z,9.68
2019-04-20T06:01:02.401Z,9.72
2019-04-20T06:02:07.596Z,9.66
2019-04-20T06:02:59.051Z,9.75
2019-04-20T06:03:59.392Z,9.79
2019-04-20T06:05:05.380Z,9.74
2019-04-20T06:06:03.477Z,9.78
2019-04-20T06:07:06.465Z,9.78
2019-04-20T06:08:00.009Z,9.79
2019-04-20T06:09:05.738Z,9.72
2019-04-20T06:10:05.897Z,9.76
2019-04-20T06:11:04.595Z,9.76
2019-04-20T06:12:14.433Z,9.79
2019-04-20T06:12:56.686Z,9.79
2019-04-20T06:13:50.686Z,9.79
2019-04-20T06:14:51.823Z,9.86
2019-04-20T06:15:53.985Z,9.86
2019-04-20T06:17:06.358Z,9.84
2019-04-20T06:17:52.856Z,9.87
2019-04-20T06:19:09.036Z,9.93
2019-04-20T06:20:01.702Z,9.90
2019-04-20T06:21:11.563Z,9.91
2019-04-20T06:22:03.423Z,9.87
2019-04-20T06:23:07.022Z,9.86
2019-04-20T06:24:06.618Z,9.86
2019-04-20T06:25:02.033Z,9.89
2019-04-20T06:26:13.172Z,9.89
2019-04-20T06:27:16.411Z,9.89
2019-04-20T06:27:57.158Z,10.01
2019-04-20T06:28:50.837Z,10.15
2019-04-20T06:29:55.786Z,10.32
2019-04-20T06:30:52.639Z,10.34
2019-04-20T06:31:57.682Z,10.56
2019-04-20T06:33:04.970Z,10.66
2019-04-20T06:34:19.606Z,10.76
2019-04-20T06:35:02.478Z,10.85
2019-04-20T06:36:57.145Z,11.07
2019-04-20T06:38:03.169Z,11.18
2019-04-20T06:39:12.362Z,11.39
2019-04-20T06:40:07.844Z,11.33
2019-04-20T06:41:10.613Z,11.57
2019-04-20T06:42:14.087Z,11.58
2019-04-20T06:43:02.458Z,11.62
2019-04-20T06:44:02.172Z,11.70
2019-04-20T06:45:04.164Z,11.86
2019-04-20T06:46:05.566Z,11.95
2019-04-20T06:47:15.714Z,12.01
2019-04-20T06:49:04.116Z,12.27
2019-04-20T06:50:03.319Z,12.21
2019-04-20T06:50:57.166Z,12.38
2019-04-20T06:52:00.454Z,12.41
2019-04-20T06:53:01.924Z,12.42
2019-04-20T06:53:54.003Z,12.53
2019-04-20T06:55:01.584Z,12.56
2019-04-20T06:56:06.765Z,12.77
2019-04-20T06:57:00.189Z,12.78
2019-04-20T06:58:01.021Z,12.79
2019-04-20T06:59:04.264Z,12.74
2019-04-20T07:00:00.778Z,12.82
2019-04-20T07:01:04.158Z,12.89
2019-04-20T07:02:05.586Z,12.89
2019-04-20T07:02:59.015Z,12.92
2019-04-20T07:04:10.757Z,12.92
2019-04-20T07:05:03.498Z,13.00
2019-04-20T07:06:06.475Z,13.01
2019-04-20T07:07:05.372Z,13.12
2019-04-20T07:08:18.259Z,13.05
2019-04-20T07:09:06.605Z,13.08
2019-04-20T07:10:12.383Z,13.08
2019-04-20T07:11:04.354Z,13.04
2019-04-20T07:11:58.085Z,13.08
2019-04-20T07:12:55.383Z,13.14
2019-04-20T07:13:48.157Z,13.17
2019-04-20T07:14:50.932Z,13.22
2019-04-20T07:15:52.716Z,13.23
2019-04-20T07:16:58.617Z,13.38
2019-04-20T07:18:02.714Z,13.42
2019-04-20T07:19:01.086Z,13.52
2019-04-20T07:19:55.908Z,13.51
2019-04-20T07:20:59.489Z,13.63
2019-04-20T07:22:12.319Z,13.62
2019-04-20T07:23:13.537Z,13.88
2019-04-20T07:24:08.171Z,13.91
2019-04-20T07:25:13.871Z,14.06
2019-04-20T07:26:01.895Z,14.10
2019-04-20T07:27:03.055Z,14.14
2019-04-20T07:27:58.462Z,14.21
2019-04-20T07:29:00.459Z,14.27
2019-04-20T07:29:56.543Z,14.40
2019-04-20T07:30:58.461Z,14.42
2019-04-20T07:31:55.183Z,14.54
2019-04-20T07:32:58.183Z,14.60
2019-04-20T07:33:57.000Z,14.68
2019-04-20T07:35:04.918Z,14.75
2019-04-20T07:35:58.042Z,14.98
2019-04-20T07:37:19.338Z,15.03
2019-04-20T07:38:20.076Z,15.01
2019-04-20T07:38:59.738Z,14.99
2019-04-20T07:39:59.417Z,15.10
2019-04-20T07:40:56.209Z,15.16
2019-04-20T07:42:01.791Z,15.23
2019-04-20T07:42:58.970Z,15.28
2019-04-20T07:44:05.919Z,15.43
2019-04-20T07:45:02.968Z,15.49
2019-04-20T07:46:02.802Z,15.53
2019-04-20T07:48:07.435Z,15.62
2019-04-20T07:49:02.067Z,15.65
2019-04-20T07:49:56.806Z,15.78
2019-04-20T07:50:52.328Z,15.89
2019-04-20T07:51:42.424Z,15.97
2019-04-20T07:52:46.546Z,16.01
2019-04-20T07:54:08.852Z,16.07
2019-04-20T07:55:18.785Z,16.11
2019-04-20T07:56:02.323Z,16.07
2019-04-20T07:56:58.947Z,16.09
2019-04-20T07:57:53.686Z,16.08
2019-04-20T07:58:46.013Z,16.17
2019-04-20T08:00:00.392Z,16.05
2019-04-20T08:01:12.526Z,16.04
2019-04-20T08:02:13.799Z,16.02
2019-04-20T08:03:03.378Z,16.01
2019-04-20T08:04:02.300Z,15.90
2019-04-20T08:04:55.081Z,15.84
2019-04-20T08:05:48.451Z,15.80
2019-04-20T08:06:45.935Z,16.02
2019-04-20T08:07:49.648Z,16.08
2019-04-20T08:08:56.090Z,16.08
2019-04-20T08:09:46.556Z,16.17
2019-04-20T08:10:54.471Z,16.23
2019-04-20T08:12:08.837Z,16.28
2019-04-20T08:13:01.949Z,16.31
2019-04-20T08:13:58.719Z,16.38
2019-04-20T08:15:03.750Z,16.45
2019-04-20T08:16:00.937Z,16.63
2019-04-20T08:18:16.821Z,16.79
2019-04-20T08:18:55.853Z,16.81
2019-04-20T08:19:58.126Z,16.89
2019-04-20T08:20:57.650Z,16.96
2019-04-20T08:21:58.511Z,17.00
2019-04-20T08:22:59.693Z,16.85
2019-04-20T08:23:59.529Z,16.78
2019-04-20T08:24:52.457Z,16.68
2019-04-20T08:25:52.243Z,16.86
2019-04-20T08:26:45.376Z,16.81
2019-04-20T08:27:37.938Z,16.96
2019-04-20T08:28:46.519Z,17.00
2019-04-20T08:29:48.448Z,17.04
2019-04-20T08:30:56.052Z,17.18
2019-04-20T08:31:55.929Z,17.16
2019-04-20T08:32:51.508Z,17.30
2019-04-20T08:34:07.766Z,17.28
2019-04-20T08:34:59.538Z,17.33
2019-04-20T08:36:01.223Z,17.19
2019-04-20T08:36:58.489Z,17.30
2019-04-20T08:38:21.194Z,17.30
2019-04-20T08:39:16.930Z,17.30
2019-04-20T08:40:02.746Z,17.22
2019-04-20T08:41:00.507Z,17.14
2019-04-20T08:42:00.499Z,17.25
2019-04-20T08:43:02.371Z,17.30
2019-04-20T08:43:59.059Z,17.40
2019-04-20T08:46:01.848Z,17.33
2019-04-20T08:47:15.878Z,17.33
2019-04-20T08:48:09.804Z,17.43
2019-04-20T08:48:56.782Z,17.44
2019-04-20T08:50:06.165Z,17.43
2019-04-20T08:51:02.129Z,17.38
2019-04-20T08:52:44.649Z,17.46
2019-04-20T08:53:12.778Z,17.55
2019-04-20T08:54:00.018Z,17.68
2019-04-20T08:54:57.823Z,17.74
2019-04-20T08:55:50.088Z,17.74
2019-04-20T08:56:44.832Z,17.86
2019-04-20T08:57:37.901Z,17.90
2019-04-20T08:58:38.860Z,17.99
2019-04-20T08:59:40.160Z,17.82
2019-04-20T09:00:45.247Z,17.74
2019-04-20T09:01:39.065Z,17.74
2019-04-20T09:02:41.216Z,17.79
2019-04-20T09:03:46.362Z,17.82
2019-04-20T09:04:45.044Z,17.86
2019-04-20T09:05:49.990Z,17.89
2019-04-20T09:06:52.183Z,17.87
2019-04-20T09:07:49.032Z,17.99
2019-04-20T09:08:50.843Z,17.90
2019-04-20T09:10:04.779Z,18.07
2019-04-20T09:10:53.991Z,18.00
2019-04-20T09:11:59.294Z,18.08
2019-04-20T09:12:53.191Z,18.08
2019-04-20T09:13:45.523Z,18.03
2019-04-20T09:14:39.436Z,17.97
2019-04-20T09:15:38.337Z,17.75
2019-04-20T09:16:45.338Z,17.70
2019-04-20T09:17:46.136Z,17.82
2019-04-20T09:18:48.043Z,17.86
2019-04-20T09:19:46.970Z,17.89
2019-04-20T09:20:48.685Z,17.81
2019-04-20T09:21:45.653Z,17.78
2019-04-20T09:22:49.469Z,17.77
2019-04-20T09:23:52.207Z,17.70
2019-04-20T09:24:57.873Z,17.84
2019-04-20T09:26:10.453Z,17.82
2019-04-20T09:27:44.947Z,17.90
2019-04-20T09:28:47.984Z,17.96
2019-04-20T09:29:57.169Z,17.93
2019-04-20T09:30:47.810Z,17.97
2019-04-20T09:31:52.072Z,18.02
2019-04-20T09:32:49.462Z,17.97
2019-04-20T09:33:57.095Z,18.05
2019-04-20T09:35:01.031Z,18.21
2019-04-20T09:35:54.923Z,18.15
2019-04-20T09:36:49.878Z,18.37
2019-04-20T09:37:54.420Z,18.39
2019-04-20T09:38:47.887Z,18.20
2019-04-20T09:40:00.879Z,18.05
2019-04-20T09:40:50.315Z,18.00
2019-04-20T09:41:59.027Z,18.07
2019-04-20T09:42:36.928Z,18.18
2019-04-20T09:43:36.933Z,18.29
2019-04-20T09:44:42.651Z,18.32
2019-04-20T09:45:42.590Z,18.45
2019-04-20T09:46:43.114Z,18.58
2019-04-20T09:47:43.324Z,18.62
2019-04-20T09:48:44.059Z,18.60
2019-04-20T09:49:49.252Z,18.60
2019-04-20T09:50:55.515Z,18.67
2019-04-20T09:51:51.870Z,18.80
2019-04-20T09:52:51.294Z,18.84
2019-04-20T09:53:48.492Z,18.91
2019-04-20T09:54:55.197Z,18.90
2019-04-20T09:55:57.692Z,18.94
2019-04-20T09:57:00.608Z,19.04
2019-04-20T09:57:54.137Z,19.04
2019-04-20T09:58:55.218Z,19.06
2019-04-20T09:59:55.401Z,18.98
2019-04-20T10:00:51.553Z,19.07
2019-04-20T10:01:43.651Z,19.16
2019-04-20T10:02:39.251Z,18.91
2019-04-20T10:03:36.742Z,18.87
2019-04-20T10:04:37.586Z,18.76
2019-04-20T10:05:37.857Z,18.82
2019-04-20T10:06:37.700Z,18.82
2019-04-20T10:07:38.634Z,18.88
2019-04-20T10:08:43.574Z,18.95
2019-04-20T10:09:41.073Z,19.02
2019-04-20T10:10:41.701Z,19.10
2019-04-20T10:11:37.378Z,19.21
2019-04-20T10:12:37.637Z,19.25
2019-04-20T10:13:36.648Z,19.36
2019-04-20T10:14:36.637Z,19.13
2019-04-20T10:15:37.538Z,19.19
2019-04-20T10:16:37.937Z,19.07
2019-04-20T10:17:37.303Z,19.11
2019-04-20T10:18:41.415Z,19.00
2019-04-20T10:19:39.413Z,19.08
2019-04-20T10:20:38.896Z,18.99
2019-04-20T10:21:36.573Z,18.90
2019-04-20T10:22:36.566Z,18.82
2019-04-20T10:23:36.674Z,18.92
2019-04-20T10:24:36.861Z,18.80
2019-04-20T10:25:36.538Z,18.92
2019-04-20T10:26:36.653Z,18.91
2019-04-20T10:27:36.781Z,19.06
2019-04-20T10:28:37.366Z,18.92
2019-04-20T10:29:37.580Z,19.00
2019-04-20T10:30:36.781Z,18.99
2019-04-20T10:31:42.783Z,19.23
2019-04-20T10:32:40.407Z,19.28
2019-04-20T10:33:37.614Z,19.41
2019-04-20T10:34:36.809Z,19.46
2019-04-20T10:35:36.451Z,19.55
2019-04-20T10:36:37.603Z,19.40
2019-04-20T10:37:37.667Z,19.33
2019-04-20T10:38:37.688Z,19.31
2019-04-20T10:39:36.408Z,19.22
2019-04-20T10:40:45.964Z,19.18
2019-04-20T10:41:45.206Z,19.26
2019-04-20T10:42:36.386Z,19.44
2019-04-20T10:43:36.387Z,19.46
2019-04-20T10:44:36.930Z,19.54
2019-04-20T10:45:36.963Z,19.69
2019-04-20T10:46:36.348Z,19.76
2019-04-20T10:47:37.121Z,19.73
2019-04-20T10:48:40.462Z,19.92
2019-04-20T10:49:37.339Z,19.98
2019-04-20T10:50:36.775Z,19.98
2019-04-20T10:51:37.574Z,20.10
2019-04-20T10:52:36.295Z,20.06
2019-04-20T10:53:36.711Z,20.06
2019-04-20T10:54:36.518Z,20.16
2019-04-20T10:55:37.635Z,19.99
2019-04-20T10:56:37.322Z,20.08
2019-04-20T10:57:37.518Z,20.14
2019-04-20T10:58:36.253Z,20.18
2019-04-20T10:59:37.262Z,20.10
2019-04-20T11:00:37.429Z,19.87
2019-04-20T11:01:36.223Z,19.76
2019-04-20T11:02:37.190Z,19.78
2019-04-20T11:03:36.555Z,19.74
2019-04-20T11:04:36.789Z,19.63
2019-04-20T11:05:36.188Z,19.48
2019-04-20T11:06:36.482Z,19.40
2019-04-20T11:07:36.723Z,19.26
2019-04-20T11:08:36.162Z,19.23
2019-04-20T11:09:36.613Z,19.28
2019-04-20T11:10:51.126Z,19.33
2019-04-20T11:11:37.079Z,19.39
2019-04-20T11:12:36.132Z,19.50
2019-04-20T11:13:37.347Z,19.50
2019-04-20T11:14:38.805Z,19.58
2019-04-20T11:15:36.654Z,19.61
2019-04-20T11:16:36.200Z,19.74
2019-04-20T11:17:37.145Z,19.92
2019-04-20T11:18:36.077Z,20.03
2019-04-20T11:19:37.099Z,20.18
2019-04-20T11:20:37.258Z,20.24
2019-04-20T11:21:36.475Z,20.35
2019-04-20T11:22:36.044Z,20.57
2019-04-20T11:23:36.263Z,20.55
2019-04-20T11:24:36.394Z,20.70
2019-04-20T11:25:36.020Z,20.72
2019-04-20T11:26:38.283Z,20.67
2019-04-20T11:27:36.388Z,20.73
2019-04-20T11:28:35.994Z,20.73
2019-04-20T11:29:36.077Z,20.70
2019-04-20T11:30:36.258Z,20.64
2019-04-20T11:31:41.680Z,20.57
2019-04-20T11:32:36.063Z,20.51
2019-04-20T11:33:36.216Z,20.59
2019-04-20T11:34:38.949Z,20.59
2019-04-20T11:35:39.221Z,20.67
2019-04-20T11:36:37.067Z,20.73
2019-04-20T11:37:37.287Z,20.80
2019-04-20T11:38:35.916Z,21.01
2019-04-20T11:39:37.021Z,20.97
2019-04-20T11:40:37.005Z,21.01
2019-04-20T11:41:37.340Z,21.06
2019-04-20T11:42:35.880Z,21.14
2019-04-20T11:43:35.876Z,21.35
2019-04-20T11:44:36.578Z,21.34
2019-04-20T11:45:36.408Z,21.17
2019-04-20T11:46:36.597Z,21.24
2019-04-20T11:47:35.846Z,21.24
2019-04-20T11:48:37.167Z,21.28
2019-04-20T11:49:35.831Z,21.24
2019-04-20T11:50:35.818Z,21.42
2019-04-20T11:51:37.081Z,21.43
2019-04-20T11:52:39.925Z,21.46
2019-04-20T11:53:36.399Z,21.38
2019-04-20T11:54:36.589Z,21.46
2019-04-20T11:55:36.291Z,21.53
2019-04-20T11:56:40.373Z,21.61
2019-04-20T11:57:35.763Z,21.44
2019-04-20T11:58:36.172Z,21.42
2019-04-20T11:59:37.034Z,21.12
2019-04-20T12:00:43.195Z,20.87
2019-04-20T12:01:43.185Z,20.79
2019-04-20T12:02:40.419Z,20.80
2019-04-20T12:03:47.819Z,20.73
2019-04-20T12:04:46.655Z,20.70
2019-04-20T12:05:41.495Z,20.43
2019-04-20T12:06:36.616Z,20.54
2019-04-20T12:07:37.787Z,20.76
2019-04-20T12:08:38.816Z,20.80
2019-04-20T12:09:35.665Z,20.89
2019-04-20T12:10:37.098Z,20.97
2019-04-20T12:11:47.574Z,21.07
2019-04-20T12:12:41.902Z,20.99
2019-04-20T12:13:36.594Z,21.07
2019-04-20T12:14:36.762Z,20.89
2019-04-20T12:15:37.477Z,20.88
2019-04-20T12:16:35.611Z,20.94
2019-04-20T12:17:35.682Z,21.07
2019-04-20T12:18:35.931Z,21.12
2019-04-20T12:19:36.324Z,21.13
2019-04-20T12:20:36.663Z,21.12
2019-04-20T12:21:36.859Z,21.27
2019-04-20T12:22:36.455Z,21.43
2019-04-20T12:23:36.209Z,21.52
2019-04-20T12:24:36.200Z,21.72
2019-04-20T12:25:36.775Z,21.88
2019-04-20T12:26:36.531Z,22.10
2019-04-20T12:27:36.618Z,22.06
2019-04-20T12:28:35.886Z,22.06
2019-04-20T12:29:35.523Z,22.07
2019-04-20T12:30:35.579Z,22.07
2019-04-20T12:31:35.700Z,22.15
2019-04-20T12:32:43.474Z,22.12
2019-04-20T12:33:36.641Z,22.07
2019-04-20T12:34:35.478Z,22.09
2019-04-20T12:35:36.191Z,22.14
2019-04-20T12:36:35.470Z,22.18
2019-04-20T12:37:36.823Z,22.35
2019-04-20T12:38:35.452Z,22.39
2019-04-20T12:39:35.448Z,22.57
2019-04-20T12:40:35.484Z,22.57
2019-04-20T12:41:43.369Z,22.42
2019-04-20T12:42:35.423Z,22.37
2019-04-20T12:43:36.028Z,22.21
2019-04-20T12:44:35.538Z,22.05
2019-04-20T12:45:35.613Z,22.00
2019-04-20T12:46:36.008Z,22.10
2019-04-20T12:47:35.495Z,21.92
2019-04-20T12:48:35.577Z,21.86
2019-04-20T12:49:35.752Z,21.80
2019-04-20T12:50:35.410Z,21.74
2019-04-20T12:51:42.168Z,21.64
2019-04-20T12:52:36.538Z,21.64
2019-04-20T12:53:35.350Z,21.44
2019-04-20T12:54:36.524Z,21.46
2019-04-20T12:55:36.654Z,21.14
2019-04-20T12:56:35.332Z,21.06
2019-04-20T12:57:36.431Z,21.22
2019-04-20T12:58:36.584Z,21.22
2019-04-20T12:59:35.779Z,21.37
2019-04-20T13:00:35.294Z,21.24
2019-04-20T13:01:35.479Z,21.32
2019-04-20T13:02:35.571Z,21.46
2019-04-20T13:03:35.319Z,21.62
2019-04-20T13:04:35.365Z,21.90
2019-04-20T13:05:36.017Z,21.98
2019-04-20T13:06:37.289Z,22.31
2019-04-20T13:07:39.571Z,22.51
2019-04-20T13:08:39.143Z,22.46
2019-04-20T13:09:35.223Z,22.54
2019-04-20T13:10:35.791Z,22.60
2019-04-20T13:11:46.269Z,22.70
2019-04-20T13:12:36.294Z,22.68
2019-04-20T13:13:36.450Z,22.75
2019-04-20T13:14:35.197Z,22.68
2019-04-20T13:15:36.443Z,22.79
2019-04-20T13:16:36.390Z,22.98
2019-04-20T13:17:35.173Z,23.07
2019-04-20T13:18:35.163Z,23.02